sensor_id;sensor_type;location;lat;lon;timestamp;pressure;altitude;pressure_sealevel;temperature;humidity
70458;BME280;57919;56.194;95.716;2023-02-28T00:09:53;100873.50;;;-13.63;70.23
70458;BME280;57919;56.194;95.716;2023-02-28T00:19:55;100859.84;;;-13.58;70.90
70458;BME280;57919;56.194;95.716;2023-02-28T00:29:58;100844.06;;;-13.37;71.55
70458;BME280;57919;56.194;95.716;2023-02-28T00:40:00;100828.22;;;-13.18;71.14
70458;BME280;57919;56.194;95.716;2023-02-28T00:50:04;100842.78;;;-12.96;71.45
70458;BME280;57919;56.194;95.716;2023-02-28T01:00:07;100834.31;;;-12.89;71.27
70458;BME280;57919;56.194;95.716;2023-02-28T01:10:10;100817.78;;;-12.91;71.94
70458;BME280;57919;56.194;95.716;2023-02-28T01:20:13;100802.22;;;-12.59;72.18
70458;BME280;57919;56.194;95.716;2023-02-28T01:30:16;100806.34;;;-12.37;72.03
70458;BME280;57919;56.194;95.716;2023-02-28T01:40:22;100782.28;;;-12.29;72.03
70458;BME280;57919;56.194;95.716;2023-02-28T01:50:28;100772.22;;;-12.15;72.38
70458;BME280;57919;56.194;95.716;2023-02-28T02:00:34;100753.84;;;-12.20;71.93
70458;BME280;57919;56.194;95.716;2023-02-28T02:10:40;100755.91;;;-11.73;72.43
70458;BME280;57919;56.194;95.716;2023-02-28T02:41:53;100707.22;;;-10.59;70.79
70458;BME280;57919;56.194;95.716;2023-02-28T02:51:58;100698.13;;;-10.78;71.20
70458;BME280;57919;56.194;95.716;2023-02-28T03:02:06;100686.41;;;-10.54;71.33
70458;BME280;57919;56.194;95.716;2023-02-28T03:12:12;100667.72;;;-10.29;72.42
70458;BME280;57919;56.194;95.716;2023-02-28T03:32:38;100636.91;;;-9.38;72.09
70458;BME280;57919;56.194;95.716;2023-02-28T03:42:45;100614.81;;;-8.93;73.16
70458;BME280;57919;56.194;95.716;2023-02-28T03:53:00;100596.25;;;-8.33;73.73
70458;BME280;57919;56.194;95.716;2023-02-28T04:03:06;100597.72;;;-7.61;73.11
70458;BME280;57919;56.194;95.716;2023-02-28T04:13:08;100590.03;;;-7.30;72.58
70458;BME280;57919;56.194;95.716;2023-02-28T04:23:10;100569.06;;;-7.21;72.95
70458;BME280;57919;56.194;95.716;2023-02-28T04:33:12;100541.22;;;-6.60;72.89
70458;BME280;57919;56.194;95.716;2023-02-28T04:43:13;100525.47;;;-6.15;72.23
70458;BME280;57919;56.194;95.716;2023-02-28T04:53:15;100528.06;;;-5.76;72.22
70458;BME280;57919;56.194;95.716;2023-02-28T05:03:20;100495.19;;;-4.77;71.24
70458;BME280;57919;56.194;95.716;2023-02-28T05:13:23;100479.53;;;-3.90;70.15
70458;BME280;57919;56.194;95.716;2023-02-28T05:23:25;100452.63;;;-3.46;68.87
70458;BME280;57919;56.194;95.716;2023-02-28T05:33:27;100439.00;;;-3.14;68.50
70458;BME280;57919;56.194;95.716;2023-02-28T05:43:29;100405.31;;;-2.44;68.71
70458;BME280;57919;56.194;95.716;2023-02-28T05:53:31;100402.91;;;-2.07;66.17
70458;BME280;57919;56.194;95.716;2023-02-28T06:03:34;100374.56;;;-2.53;66.74
70458;BME280;57919;56.194;95.716;2023-02-28T06:13:36;100361.91;;;-2.89;66.08
70458;BME280;57919;56.194;95.716;2023-02-28T06:23:38;100340.28;;;-3.19;66.89
70458;BME280;57919;56.194;95.716;2023-02-28T06:33:40;100310.63;;;-3.41;67.16
70458;BME280;57919;56.194;95.716;2023-02-28T06:43:44;100313.16;;;-3.33;67.10
70458;BME280;57919;56.194;95.716;2023-02-28T06:53:46;100289.41;;;-2.81;66.81
70458;BME280;57919;56.194;95.716;2023-02-28T07:03:48;100249.34;;;-2.61;66.58
70458;BME280;57919;56.194;95.716;2023-02-28T07:13:54;100234.38;;;-2.17;65.52
70458;BME280;57919;56.194;95.716;2023-02-28T07:23:56;100211.19;;;-2.08;65.82
70458;BME280;57919;56.194;95.716;2023-02-28T07:33:59;100203.28;;;-2.09;65.14
70458;BME280;57919;56.194;95.716;2023-02-28T07:44:01;100171.34;;;-2.03;65.34
70458;BME280;57919;56.194;95.716;2023-02-28T07:54:03;100158.63;;;-2.29;65.29
70458;BME280;57919;56.194;95.716;2023-02-28T08:04:05;100128.94;;;-2.45;66.03
70458;BME280;57919;56.194;95.716;2023-02-28T08:14:07;100103.97;;;-2.33;65.92
70458;BME280;57919;56.194;95.716;2023-02-28T08:24:09;100069.44;;;-2.29;65.24
70458;BME280;57919;56.194;95.716;2023-02-28T08:34:14;100047.47;;;-2.34;66.89
70458;BME280;57919;56.194;95.716;2023-02-28T08:44:16;100042.31;;;-2.40;66.97
70458;BME280;57919;56.194;95.716;2023-02-28T08:54:18;100010.63;;;-2.44;66.69
70458;BME280;57919;56.194;95.716;2023-02-28T09:04:21;99990.22;;;-2.41;67.29
70458;BME280;57919;56.194;95.716;2023-02-28T09:14:23;99992.44;;;-2.22;66.90
70458;BME280;57919;56.194;95.716;2023-02-28T09:24:25;99965.06;;;-2.23;66.30
70458;BME280;57919;56.194;95.716;2023-02-28T09:34:28;99962.69;;;-1.98;65.30
70458;BME280;57919;56.194;95.716;2023-02-28T09:44:36;99938.91;;;-2.01;64.95
70458;BME280;57919;56.194;95.716;2023-02-28T09:54:39;99910.38;;;-1.91;64.94
70458;BME280;57919;56.194;95.716;2023-02-28T10:04:54;99892.63;;;-1.89;64.75
70458;BME280;57919;56.194;95.716;2023-02-28T10:14:59;99853.91;;;-1.95;65.13
70458;BME280;57919;56.194;95.716;2023-02-28T10:25:22;99853.03;;;-1.96;64.42
70458;BME280;57919;56.194;95.716;2023-02-28T10:35:26;99842.28;;;-1.89;64.52
70458;BME280;57919;56.194;95.716;2023-02-28T10:45:30;99828.19;;;-1.91;64.26
70458;BME280;57919;56.194;95.716;2023-02-28T10:55:33;99797.50;;;-2.00;63.99
70458;BME280;57919;56.194;95.716;2023-02-28T11:05:36;99768.44;;;-2.03;64.15
70458;BME280;57919;56.194;95.716;2023-02-28T11:15:38;99752.09;;;-2.19;65.38
70458;BME280;57919;56.194;95.716;2023-02-28T11:25:47;99739.81;;;-2.21;65.12
70458;BME280;57919;56.194;95.716;2023-02-28T11:35:51;99728.72;;;-2.05;63.89
70458;BME280;57919;56.194;95.716;2023-02-28T11:56:23;99706.97;;;-1.86;62.74
70458;BME280;57919;56.194;95.716;2023-02-28T12:06:49;99690.69;;;-1.74;62.06
70458;BME280;57919;56.194;95.716;2023-02-28T12:27:17;99640.53;;;-1.54;62.43
70458;BME280;57919;56.194;95.716;2023-02-28T12:37:37;99617.63;;;-1.30;62.40
70458;BME280;57919;56.194;95.716;2023-02-28T12:47:44;99601.84;;;-1.08;61.74
70458;BME280;57919;56.194;95.716;2023-02-28T12:57:57;99578.91;;;-1.11;61.46
70458;BME280;57919;56.194;95.716;2023-02-28T13:18:44;99539.22;;;-1.39;60.95
70458;BME280;57919;56.194;95.716;2023-02-28T13:39:02;99496.38;;;-1.53;60.64
70458;BME280;57919;56.194;95.716;2023-02-28T13:49:25;99481.75;;;-1.65;60.18
70458;BME280;57919;56.194;95.716;2023-02-28T14:10:23;99428.00;;;-1.45;60.22
70458;BME280;57919;56.194;95.716;2023-02-28T14:20:30;99409.97;;;-1.35;60.68
70458;BME280;57919;56.194;95.716;2023-02-28T14:30:57;99395.72;;;-1.33;59.40
70458;BME280;57919;56.194;95.716;2023-02-28T14:41:06;99371.47;;;-1.23;58.21
70458;BME280;57919;56.194;95.716;2023-02-28T14:51:19;99346.16;;;-1.32;58.95
70458;BME280;57919;56.194;95.716;2023-02-28T15:01:25;99315.47;;;-1.39;58.66
70458;BME280;57919;56.194;95.716;2023-02-28T15:11:27;99300.97;;;-1.52;59.60
70458;BME280;57919;56.194;95.716;2023-02-28T15:21:35;99274.38;;;-1.51;58.64
70458;BME280;57919;56.194;95.716;2023-02-28T15:31:45;99261.97;;;-1.50;58.76
70458;BME280;57919;56.194;95.716;2023-02-28T15:41:49;99234.66;;;-1.52;59.00
70458;BME280;57919;56.194;95.716;2023-02-28T15:51:53;99226.75;;;-1.54;59.29
70458;BME280;57919;56.194;95.716;2023-02-28T16:02:12;99209.06;;;-1.53;58.85
70458;BME280;57919;56.194;95.716;2023-02-28T16:12:15;99188.44;;;-1.47;58.87
70458;BME280;57919;56.194;95.716;2023-02-28T16:22:17;99167.16;;;-1.45;58.33
70458;BME280;57919;56.194;95.716;2023-02-28T16:32:18;99135.22;;;-1.42;58.60
70458;BME280;57919;56.194;95.716;2023-02-28T16:42:26;99122.38;;;-1.31;57.65
70458;BME280;57919;56.194;95.716;2023-02-28T16:52:28;99106.91;;;-1.21;58.41
70458;BME280;57919;56.194;95.716;2023-02-28T17:02:30;99095.25;;;-1.17;58.21
70458;BME280;57919;56.194;95.716;2023-02-28T17:12:32;99065.06;;;-1.15;57.66
70458;BME280;57919;56.194;95.716;2023-02-28T17:22:34;99054.31;;;-1.12;57.82
70458;BME280;57919;56.194;95.716;2023-02-28T17:32:35;99038.44;;;-1.13;58.24
70458;BME280;57919;56.194;95.716;2023-02-28T17:42:37;99020.00;;;-1.16;57.89
70458;BME280;57919;56.194;95.716;2023-02-28T17:52:39;99020.47;;;-1.07;57.81
70458;BME280;57919;56.194;95.716;2023-02-28T18:02:41;99002.72;;;-0.67;58.17
70458;BME280;57919;56.194;95.716;2023-02-28T18:12:43;98989.34;;;-0.09;57.78
70458;BME280;57919;56.194;95.716;2023-02-28T18:22:45;98977.81;;;0.44;56.30
70458;BME280;57919;56.194;95.716;2023-02-28T18:32:48;98970.22;;;0.71;56.20
70458;BME280;57919;56.194;95.716;2023-02-28T18:42:50;98954.75;;;0.94;55.85
70458;BME280;57919;56.194;95.716;2023-02-28T18:52:52;98941.28;;;1.13;55.81
70458;BME280;57919;56.194;95.716;2023-02-28T19:02:54;98919.81;;;1.32;54.59
70458;BME280;57919;56.194;95.716;2023-02-28T19:12:56;98907.09;;;1.53;53.97
70458;BME280;57919;56.194;95.716;2023-02-28T19:22:57;98893.06;;;1.65;53.94
70458;BME280;57919;56.194;95.716;2023-02-28T19:32:59;98872.53;;;1.67;53.41
70458;BME280;57919;56.194;95.716;2023-02-28T19:43:01;98850.84;;;1.73;53.75
70458;BME280;57919;56.194;95.716;2023-02-28T19:53:03;98857.97;;;1.73;53.96
70458;BME280;57919;56.194;95.716;2023-02-28T20:03:05;98846.63;;;1.69;54.16
70458;BME280;57919;56.194;95.716;2023-02-28T20:13:07;98818.16;;;1.70;53.86
70458;BME280;57919;56.194;95.716;2023-02-28T20:23:09;98795.88;;;1.71;53.31
70458;BME280;57919;56.194;95.716;2023-02-28T20:33:11;98768.56;;;1.67;53.65
70458;BME280;57919;56.194;95.716;2023-02-28T20:43:13;98752.38;;;1.70;53.37
70458;BME280;57919;56.194;95.716;2023-02-28T20:53:15;98710.88;;;1.94;52.63
70458;BME280;57919;56.194;95.716;2023-02-28T21:03:17;98710.50;;;2.01;52.59
70458;BME280;57919;56.194;95.716;2023-02-28T21:13:19;98689.84;;;2.04;52.85
70458;BME280;57919;56.194;95.716;2023-02-28T21:23:21;98670.41;;;2.02;53.06
70458;BME280;57919;56.194;95.716;2023-02-28T21:33:22;98664.69;;;2.08;53.19
70458;BME280;57919;56.194;95.716;2023-02-28T21:43:24;98625.44;;;2.10;52.80
70458;BME280;57919;56.194;95.716;2023-02-28T21:53:27;98559.97;;;2.19;51.63
70458;BME280;57919;56.194;95.716;2023-02-28T22:03:30;98551.06;;;2.33;51.52
70458;BME280;57919;56.194;95.716;2023-02-28T22:13:32;98549.34;;;2.32;51.64
70458;BME280;57919;56.194;95.716;2023-02-28T22:23:36;98541.34;;;2.32;51.53
70458;BME280;57919;56.194;95.716;2023-02-28T22:33:38;98540.72;;;2.41;51.05
70458;BME280;57919;56.194;95.716;2023-02-28T22:43:41;98527.09;;;2.45;51.37
70458;BME280;57919;56.194;95.716;2023-02-28T22:53:44;98498.13;;;2.39;51.43
70458;BME280;57919;56.194;95.716;2023-02-28T23:03:47;98503.50;;;2.52;51.60
70458;BME280;57919;56.194;95.716;2023-02-28T23:13:49;98502.44;;;2.54;51.59
70458;BME280;57919;56.194;95.716;2023-02-28T23:24:02;98499.97;;;2.51;51.32
70458;BME280;57919;56.194;95.716;2023-02-28T23:34:05;98500.97;;;2.63;51.16
70458;BME280;57919;56.194;95.716;2023-02-28T23:44:07;98511.22;;;2.69;51.17
70458;BME280;57919;56.194;95.716;2023-02-28T23:54:14;98491.47;;;2.72;51.12
